Time;durP1;ratioP1;P1;durP2;ratioP2;P2;SDS_P1;SDS_P2;PMS_P1;PMS_P2;Temp;Humidity;BMP_temperature;BMP_pressure;BME280_temperature;BME280_humidity;BME280_pressure;Samples;Min_cycle;Max_cycle;Signal;HPM_P1;HPM_P2
2023/10/15 00:01:50;;;;;;;12.43;6.70;;;;;;;16.73;51.79;94368.13;4210243;28;20396;-71
2023/10/15 00:03:54;;;;;;;12.30;6.57;;;;;;;16.69;51.90;94365.09;4189937;28;20060;-71
2023/10/15 00:05:56;;;;;;;;;;;;;;;16.66;52.11;94359.38;4205725;28;20049;-69
2023/10/15 00:07:58;;;;;;;13.10;6.55;;;;;;;16.61;52.55;94352.06;4209462;28;19943;-70
2023/10/15 00:10:00;;;;;;;12.10;6.57;;;;;;;16.58;52.32;94357.75;4200080;28;20063;-71
2023/10/15 00:12:03;;;;;;;13.30;6.90;;;;;;;16.59;52.50;94354.09;4205081;28;20063;-71
2023/10/15 00:14:05;;;;;;;11.65;6.70;;;;;;;16.56;52.54;94343.91;4204443;28;20472;-70
2023/10/15 00:16:07;;;;;;;9.85;6.45;;;;;;;16.54;52.64;94354.72;4196302;28;20453;-72
2023/10/15 00:18:10;;;;;;;15.52;7.20;;;;;;;16.55;52.58;94348.41;4204432;28;20052;-69
2023/10/15 00:20:16;;;;;;;20.98;6.80;;;;;;;16.61;52.40;94340.69;4175065;28;20076;-69
2023/10/15 00:22:19;;;;;;;20.92;7.43;;;;;;;16.62;52.34;94348.38;4205455;28;20059;-69
2023/10/15 00:24:21;;;;;;;14.98;7.22;;;;;;;16.62;52.40;94344.94;4184833;28;20577;-70
2023/10/15 00:26:24;;;;;;;13.10;6.13;;;;;;;16.55;52.49;94345.75;4197400;28;20726;-70
2023/10/15 00:28:29;;;;;;;12.73;6.72;;;;;;;16.49;52.84;94351.03;4198086;28;20793;-69
2023/10/15 00:30:34;;;;;;;13.40;6.50;;;;;;;16.47;52.70;94342.50;4208787;28;20056;-70
2023/10/15 00:32:37;;;;;;;11.32;6.88;;;;;;;16.48;53.02;94346.78;4209468;28;20044;-67
2023/10/15 00:34:39;;;;;;;12.27;6.73;;;;;;;16.50;52.80;94347.41;4188603;28;20127;-71
2023/10/15 00:36:42;;;;;;;11.60;7.13;;;;;;;16.49;52.60;94345.75;4208001;28;20075;-72
2023/10/15 00:38:45;;;;;;;13.88;6.38;;;;;;;16.49;52.49;94345.75;4190340;28;20044;-69
2023/10/15 00:40:53;;;;;;;15.85;7.32;;;;;;;16.46;52.82;94346.97;4191379;28;20070;-70
2023/10/15 00:42:57;;;;;;;11.18;6.70;;;;;;;16.42;53.19;94350.25;4174689;28;20111;-70
2023/10/15 00:45:00;;;;;;;15.25;7.13;;;;;;;16.39;53.32;94340.91;4191417;28;20551;-70
2023/10/15 00:47:03;;;;;;;10.23;6.53;;;;;;;16.36;53.46;94342.09;4206124;28;20048;-69
2023/10/15 00:49:14;;;;;;;15.30;7.10;;;;;;;16.35;53.49;94337.84;4203061;28;20138;-70
2023/10/15 00:51:20;;;;;;;12.15;7.07;;;;;;;16.34;53.67;94332.75;4191740;28;20243;-70
2023/10/15 00:53:24;;;;;;;13.18;7.38;;;;;;;16.29;53.75;94332.53;4212846;28;20128;-69
2023/10/15 00:55:28;;;;;;;12.45;6.43;;;;;;;16.27;53.74;94332.75;4212045;28;20143;-69
2023/10/15 00:57:41;;;;;;;12.82;6.85;;;;;;;16.25;53.67;94341.91;4193485;28;20080;-71
2023/10/15 00:59:47;;;;;;;15.57;7.53;;;;;;;16.18;54.08;94337.41;4196303;28;20049;-70
2023/10/15 01:03:59;;;;;;;12.98;6.55;;;;;;;16.08;54.11;94330.91;4183717;28;20048;-70
2023/10/15 01:06:05;;;;;;;14.35;6.53;;;;;;;16.07;54.38;94329.28;4176960;28;20079;-72
2023/10/15 01:08:09;;;;;;;11.90;7.40;;;;;;;15.99;54.25;94330.28;4193392;28;20131;-71
2023/10/15 01:10:40;;;;;;;18.80;6.72;;;;;;;15.98;54.32;94331.28;4196639;28;20129;-71
2023/10/15 01:12:42;;;;;;;17.52;7.45;;;;;;;15.97;54.07;94324.38;4193168;28;20151;-71
2023/10/15 01:14:45;;;;;;;10.05;6.40;;;;;;;16.00;54.41;94326.63;4212040;28;20178;-71
2023/10/15 01:16:47;;;;;;;15.05;6.70;;;;;;;16.00;54.06;94325.81;4211141;28;20427;-68
2023/10/15 01:18:55;;;;;;;13.40;6.30;;;;;;;16.00;54.31;94328.44;4211864;28;20052;-70
2023/10/15 01:21:01;;;;;;;11.88;7.15;;;;;;;15.94;54.32;94320.31;4177929;28;20053;-69
2023/10/15 01:23:05;;;;;;;14.48;6.75;;;;;;;15.86;54.51;94323.16;4212425;28;20114;-69
2023/10/15 01:25:17;;;;;;;11.95;6.85;;;;;;;15.81;54.89;94320.31;4177925;28;20496;-71
2023/10/15 01:27:27;;;;;;;14.48;6.70;;;;;;;15.83;54.95;94322.72;4188967;28;20052;-70
2023/10/15 01:29:34;;;;;;;11.05;6.97;;;;;;;15.87;54.72;94323.97;4179756;28;20053;-72
2023/10/15 01:31:51;;;;;;;11.85;6.45;;;;;;;15.63;55.19;94327.94;4193922;28;20520;-68
2023/10/15 01:33:53;;;;;;;14.18;7.03;;;;;;;15.41;55.96;94332.56;4211537;28;20150;-72
2023/10/15 01:35:57;;;;;;;11.18;6.78;;;;;;;15.42;56.50;94334.97;4207442;28;20055;-70
2023/10/15 01:38:20;;;;;;;11.57;8.05;;;;;;;15.45;56.30;94342.50;4211560;28;20056;-71
2023/10/15 01:40:36;;;;;;;16.33;8.95;;;;;;;15.46;55.82;94338.84;4186297;28;20544;-70
2023/10/15 01:42:41;;;;;;;14.93;7.57;;;;;;;15.50;55.90;94329.53;4204968;28;20059;-71
2023/10/15 01:44:47;;;;;;;16.48;8.13;;;;;;;15.49;56.13;94341.09;4201016;28;21370;-70
2023/10/15 01:47:07;;;;;;;17.08;8.50;;;;;;;15.52;55.58;94330.13;4189632;28;20137;-70
2023/10/15 01:49:09;;;;;;;18.00;8.05;;;;;;;15.56;55.62;94325.28;4199538;28;20075;-69
2023/10/15 01:51:16;;;;;;;15.05;9.30;;;;;;;15.58;55.44;94323.25;4209760;28;20441;-69
2023/10/15 01:53:24;;;;;;;18.58;9.07;;;;;;;15.59;55.62;94324.06;4192931;28;20533;-70
2023/10/15 01:55:28;;;;;;;16.80;9.98;;;;;;;15.64;55.60;94329.56;4211801;28;20054;-69
2023/10/15 01:57:31;;;;;;;22.38;11.77;;;;;;;15.67;55.44;94321.25;4187099;28;20071;-70
2023/10/15 01:59:46;;;;;;;23.93;12.57;;;;;;;15.69;54.96;94319.22;4199825;28;20135;-70
2023/10/15 02:01:51;;;;;;;21.90;10.45;;;;;;;15.67;55.57;94323.91;4206896;28;20475;-69
2023/10/15 02:03:53;;;;;;;20.70;9.93;;;;;;;15.54;56.02;94322.03;4192015;28;20135;-70
2023/10/15 02:06:05;;;;;;;21.10;9.90;;;;;;;15.44;56.10;94322.38;4211643;28;20125;-70
2023/10/15 02:08:24;;;;;;;19.50;10.13;;;;;;;15.36;56.35;94319.94;4193201;28;20045;-71
2023/10/15 02:10:29;;;;;;;18.95;9.40;;;;;;;15.38;56.59;94319.72;4182702;28;20091;-71
2023/10/15 02:12:31;;;;;;;21.27;9.82;;;;;;;15.37;56.57;94324.19;4206748;28;20045;-72
2023/10/15 02:14:34;;;;;;;20.10;9.52;;;;;;;15.17;57.19;94324.13;4204554;28;20544;-70
2023/10/15 02:16:37;;;;;;;15.85;8.98;;;;;;;15.04;57.58;94316.97;4166206;28;20061;-71
2023/10/15 02:18:39;;;;;;;19.20;9.20;;;;;;;15.05;57.38;94315.13;4210590;28;20139;-71
2023/10/15 02:21:00;;;;;;;15.32;8.68;;;;;;;15.08;57.50;94320.03;4210904;28;20288;-72
2023/10/15 02:23:03;;;;;;;17.50;8.85;;;;;;;15.14;56.99;94325.34;4205885;28;20051;-70
2023/10/15 02:25:05;;;;;;;17.92;9.55;;;;;;;15.18;57.14;94323.09;4197850;28;20145;-70
2023/10/15 02:27:09;;;;;;;13.90;8.75;;;;;;;15.26;56.73;94319.50;4195181;28;20148;-70
2023/10/15 02:31:31;;;;;;;15.07;8.27;;;;;;;15.32;56.36;94326.63;4196028;28;20481;-69
2023/10/15 02:33:33;;;;;;;14.82;8.13;;;;;;;15.32;56.27;94324.81;4210778;28;20065;-71
2023/10/15 02:35:42;;;;;;;13.88;8.40;;;;;;;15.33;56.22;94323.78;4201308;28;20079;-71
2023/10/15 02:37:47;;;;;;;35.33;13.40;;;;;;;15.36;56.55;94333.16;4194718;28;20048;-69
2023/10/15 02:39:52;;;;;;;28.00;13.07;;;;;;;15.36;56.56;94330.50;4210746;28;20056;-71
2023/10/15 02:41:54;;;;;;;33.33;14.07;;;;;;;15.40;56.21;94329.09;4210803;28;20428;-70
2023/10/15 02:43:57;;;;;;;33.38;14.45;;;;;;;15.39;56.37;94327.47;4191567;28;20132;-70
2023/10/15 02:48:20;;;;;;;27.48;15.00;;;;;;;15.36;56.38;94319.94;4210705;28;19971;-69
2023/10/15 02:50:26;;;;;;;26.92;14.30;;;;;;;15.39;56.23;94326.66;4203852;28;20056;-73
2023/10/15 02:52:45;;;;;;;29.35;14.18;;;;;;;15.39;56.34;94321.38;4192497;28;20099;-70
2023/10/15 02:54:51;;;;;;;29.95;14.45;;;;;;;15.35;56.24;94321.75;4206485;28;20185;-70
2023/10/15 02:56:59;;;;;;;28.15;13.80;;;;;;;15.35;56.45;94315.66;4191305;28;20048;-69
2023/10/15 02:59:02;;;;;;;26.73;14.35;;;;;;;15.37;56.27;94318.94;4193965;28;20056;-69
2023/10/15 03:01:13;;;;;;;31.65;14.95;;;;;;;15.39;56.28;94310.81;4192178;28;20168;-70
2023/10/15 03:03:15;;;;;;;30.55;15.10;;;;;;;15.41;56.17;94309.59;4204460;28;20051;-70
2023/10/15 03:05:25;;;;;;;27.15;15.60;;;;;;;15.41;56.10;94309.59;4209894;28;20087;-72
2023/10/15 03:07:31;;;;;;;29.30;14.60;;;;;;;15.42;55.88;94311.22;4210434;28;20051;-70
2023/10/15 03:09:33;;;;;;;28.35;14.63;;;;;;;15.40;56.40;94313.28;4192762;28;20445;-71
2023/10/15 03:11:38;;;;;;;35.15;16.10;;;;;;;15.36;56.43;94312.03;4206800;28;20059;-70
2023/10/15 03:13:49;;;;;;;29.38;15.18;;;;;;;15.35;56.20;94319.13;4208611;28;20391;-72
2023/10/15 03:15:52;;;;;;;30.33;15.98;;;;;;;15.37;56.23;94313.66;4209762;28;20146;-72
2023/10/15 03:17:57;;;;;;;30.45;16.52;;;;;;;15.37;56.30;94308.38;4183218;28;20052;-69
2023/10/15 03:20:49;;;;;;;26.58;16.20;;;;;;;15.39;56.22;94316.09;4207542;28;20063;-68
2023/10/15 03:22:24;;;;;;;31.80;16.77;;;;;;;15.38;56.16;94309.16;4190067;28;20051;-72
2023/10/15 03:24:32;;;;;;;29.38;16.17;;;;;;;15.37;56.53;94308.38;4189516;28;20565;-71
2023/10/15 03:26:34;;;;;;;30.58;16.52;;;;;;;15.37;56.07;94308.38;4191476;28;20113;-70
2023/10/15 03:28:44;;;;;;;27.80;16.10;;;;;;;15.36;56.02;94319.94;4207863;28;20055;-69
2023/10/15 03:30:46;;;;;;;26.02;15.52;;;;;;;15.34;56.16;94316.69;4191190;28;20106;-70
2023/10/15 03:32:49;;;;;;;27.27;16.65;;;;;;;15.34;56.26;94316.69;4191429;28;20060;-70
2023/10/15 03:34:59;;;;;;;29.05;17.42;;;;;;;15.34;56.06;94309.59;4206037;28;20078;-71
2023/10/15 03:37:05;;;;;;;26.88;14.88;;;;;;;15.32;56.33;94311.59;4202315;28;20056;-68
2023/10/15 03:39:14;;;;;;;29.58;16.00;;;;;;;15.34;56.35;94304.31;4204528;28;20048;-72
2023/10/15 03:41:27;;;;;;;30.77;16.00;;;;;;;15.32;56.06;94306.31;4172391;28;20053;-73
2023/10/15 03:43:29;;;;;;;24.40;13.93;;;;;;;15.30;56.16;94310.19;4209673;28;20333;-70
2023/10/15 03:45:33;;;;;;;27.95;14.68;;;;;;;15.26;56.12;94306.31;4207384;28;20539;-71
2023/10/15 03:47:39;;;;;;;23.85;13.82;;;;;;;15.22;56.41;94305.06;4177564;28;20061;-69
2023/10/15 03:49:51;;;;;;;26.73;15.18;;;;;;;15.21;56.47;94295.50;4187710;28;20058;-70
2023/10/15 03:51:54;;;;;;;22.75;14.80;;;;;;;15.18;56.49;94306.47;4191154;28;20052;-69
2023/10/15 03:53:59;;;;;;;24.38;14.18;;;;;;;15.14;56.52;94295.47;4208733;28;20053;-70
2023/10/15 03:56:08;;;;;;;25.27;14.80;;;;;;;15.13;56.60;94297.31;4208827;28;20047;-68
2023/10/15 03:58:13;;;;;;;24.60;14.30;;;;;;;15.12;56.40;94302.78;4206917;28;20055;-68
2023/10/15 04:00:26;;;;;;;25.50;14.98;;;;;;;15.11;56.60;94299.34;4206102;28;20052;-73
2023/10/15 04:05:11;;;;;;;27.13;14.88;;;;;;;15.03;57.20;94303.97;4163636;28;20058;-73
2023/10/15 04:07:22;;;;;;;31.50;17.42;;;;;;;14.75;57.96;94299.56;4208801;28;20063;-71
2023/10/15 04:09:25;;;;;;;31.42;17.02;;;;;;;14.71;57.77;94293.03;4192684;28;20114;-72
2023/10/15 04:11:44;;;;;;;27.25;15.65;;;;;;;14.71;58.25;94293.88;4209270;28;20058;-72
2023/10/15 04:13:46;;;;;;;24.23;15.10;;;;;;;14.69;58.43;94293.25;4192915;28;20510;-71
2023/10/15 04:15:49;;;;;;;26.42;13.85;;;;;;;14.64;58.56;94295.66;4191272;28;20053;-71
2023/10/15 04:17:52;;;;;;;21.75;13.75;;;;;;;14.65;58.59;94296.47;4209844;28;20550;-71
2023/10/15 04:19:54;;;;;;;25.10;14.23;;;;;;;14.64;58.60;94290.38;4190934;28;20059;-71
2023/10/15 04:22:02;;;;;;;29.48;14.38;;;;;;;14.67;58.26;94284.72;4208070;28;20542;-70
2023/10/15 04:24:06;;;;;;;23.85;13.90;;;;;;;14.69;58.73;94295.06;4201759;28;20063;-72
2023/10/15 04:26:12;;;;;;;25.13;14.35;;;;;;;14.68;58.63;94299.53;4176118;28;20425;-73
2023/10/15 04:28:15;;;;;;;25.63;13.13;;;;;;;14.69;58.25;94298.53;4187886;28;20507;-72
2023/10/15 04:30:17;;;;;;;25.20;12.90;;;;;;;14.66;58.13;94293.63;4207271;28;20082;-73
2023/10/15 04:34:29;;;;;;;21.70;13.25;;;;;;;14.61;58.48;94293.41;4209082;28;20138;-71
2023/10/15 04:36:40;;;;;;;29.98;13.45;;;;;;;14.58;58.71;94293.78;4191733;28;20126;-69
2023/10/15 04:38:43;;;;;;;23.48;13.38;;;;;;;14.59;58.85;94303.34;4209475;28;20058;-72
2023/10/15 04:43:00;;;;;;;25.13;12.27;;;;;;;14.60;58.77;94302.31;4193590;28;20060;-72
2023/10/15 04:45:03;;;;;;;21.52;11.90;;;;;;;14.62;58.48;94302.13;4201376;28;20137;-72
2023/10/15 04:47:05;;;;;;;23.77;11.07;;;;;;;14.56;58.43;94306.34;4189168;28;20583;-74
2023/10/15 04:49:07;;;;;;;27.88;12.13;;;;;;;14.56;58.71;94297.63;4201410;28;20086;-69
2023/10/15 04:51:18;;;;;;;22.88;12.52;;;;;;;14.52;58.74;94300.63;4209352;28;20056;-70
2023/10/15 04:55:22;;;;;;;33.58;14.48;;;;;;;14.50;59.14;94302.63;4190046;28;20137;-73
2023/10/15 04:57:25;;;;;;;32.13;17.20;;;;;;;14.53;59.22;94307.50;4206762;28;20087;-72
2023/10/15 04:59:28;;;;;;;39.20;18.52;;;;;;;14.41;59.05;94314.34;4173771;28;20049;-72
2023/10/15 05:01:31;;;;;;;33.40;17.75;;;;;;;14.01;60.62;94318.47;4191711;28;20059;-71
2023/10/15 05:03:36;;;;;;;46.65;18.90;;;;;;;13.73;61.40;94319.22;4209493;28;20060;-74
2023/10/15 05:05:38;;;;;;;38.13;17.75;;;;;;;13.45;62.04;94324.41;4189994;28;20060;-71
2023/10/15 05:07:40;;;;;;;27.17;14.77;;;;;;;13.23;62.94;94315.63;4191878;28;20064;-70
2023/10/15 05:09:44;;;;;;;33.05;15.30;;;;;;;13.38;63.17;94319.06;4209636;28;20511;-73
2023/10/15 05:11:50;;;;;;;32.03;15.00;;;;;;;13.66;62.49;94321.00;4209092;28;20062;-71
2023/10/15 05:13:52;;;;;;;28.55;15.32;;;;;;;13.90;61.24;94315.34;4191084;28;20062;-70
2023/10/15 05:15:56;;;;;;;25.33;13.50;;;;;;;14.15;60.94;94320.19;4201228;28;20052;-72
2023/10/15 05:17:58;;;;;;;33.67;14.25;;;;;;;14.33;60.10;94320.56;4175597;28;20079;-72
2023/10/15 05:20:01;;;;;;;29.90;14.45;;;;;;;14.52;59.50;94318.28;4190934;28;20056;-73
2023/10/15 05:22:03;;;;;;;33.35;13.95;;;;;;;14.53;59.15;94322.53;4175196;28;20044;-71
2023/10/15 05:24:05;;;;;;;29.48;12.77;;;;;;;14.61;59.03;94319.78;4191617;28;20498;-70
2023/10/15 05:26:08;;;;;;;31.45;13.55;;;;;;;14.70;58.92;94323.88;4197154;28;20063;-72
2023/10/15 05:28:14;;;;;;;25.67;14.18;;;;;;;14.79;58.86;94321.91;4196140;28;20513;-71
2023/10/15 05:30:17;;;;;;;25.48;14.55;;;;;;;14.89;58.34;94322.38;4191866;28;20052;-70
2023/10/15 05:32:19;;;;;;;29.00;14.57;;;;;;;15.01;58.34;94319.97;4186656;28;20072;-72
2023/10/15 05:34:21;;;;;;;24.40;13.82;;;;;;;15.10;57.82;94321.47;4174777;28;20497;-73
2023/10/15 05:36:24;;;;;;;30.85;14.80;;;;;;;15.17;57.73;94324.13;4191626;28;20052;-72
2023/10/15 05:38:27;;;;;;;23.98;13.88;;;;;;;15.27;57.55;94318.47;4212472;28;20047;-73
2023/10/15 05:40:29;;;;;;;28.40;13.73;;;;;;;15.36;57.53;94312.84;4184861;28;20063;-71
2023/10/15 05:42:35;;;;;;;23.33;14.35;;;;;;;15.44;56.95;94308.38;4208692;28;20135;-72
2023/10/15 05:44:37;;;;;;;33.58;14.60;;;;;;;15.50;57.09;94303.13;4187696;28;20053;-72
2023/10/15 05:46:39;;;;;;;27.80;14.95;;;;;;;15.60;56.56;94308.03;4203518;28;20491;-72
2023/10/15 05:48:41;;;;;;;26.15;13.75;;;;;;;15.65;56.69;94302.97;4191379;28;20504;-70
2023/10/15 05:50:50;;;;;;;28.65;14.05;;;;;;;15.69;56.82;94306.84;4201636;28;20052;-69
2023/10/15 05:52:52;;;;;;;33.95;14.07;;;;;;;15.72;56.23;94317.03;4202219;28;20052;-72
2023/10/15 05:54:54;;;;;;;22.40;12.25;;;;;;;15.69;56.39;94311.31;4174742;28;20053;-71
2023/10/15 05:56:56;;;;;;;20.23;12.50;;;;;;;15.72;56.49;94310.91;4212339;28;20428;-72
2023/10/15 05:58:57;;;;;;;25.02;12.73;;;;;;;15.80;56.56;94312.56;4204737;28;20491;-74
2023/10/15 06:01:03;;;;;;;25.13;12.38;;;;;;;15.75;56.20;94308.72;4211867;28;20132;-72
2023/10/15 06:03:10;;;;;;;22.13;11.48;;;;;;;15.73;56.04;94317.84;4212152;28;20481;-72
2023/10/15 06:05:16;;;;;;;21.50;11.15;;;;;;;15.74;56.32;94317.66;4193869;28;20136;-72
2023/10/15 06:07:20;;;;;;;14.55;10.27;;;;;;;15.80;55.44;94323.16;4193627;28;20431;-73
2023/10/15 06:09:22;;;;;;;20.67;10.75;;;;;;;15.76;55.83;94320.88;4212066;28;20135;-73
2023/10/15 06:11:24;;;;;;;20.27;11.25;;;;;;;15.83;55.74;94323.56;4210723;28;20062;-73
2023/10/15 06:13:26;;;;;;;22.42;11.05;;;;;;;15.85;55.63;94321.53;4211255;28;20064;-73
2023/10/15 06:15:28;;;;;;;21.83;11.27;;;;;;;15.89;55.79;94322.72;4193453;28;20048;-75
2023/10/15 06:17:32;;;;;;;20.60;11.68;;;;;;;15.99;55.38;94316.28;4193547;28;20051;-72
2023/10/15 06:19:36;;;;;;;18.80;11.57;;;;;;;16.11;55.06;94312.00;4201292;28;20055;-73
2023/10/15 06:21:38;;;;;;;19.02;12.85;;;;;;;16.22;54.93;94316.69;4211413;28;20338;-72
2023/10/15 06:23:41;;;;;;;21.13;12.57;;;;;;;16.31;54.59;94315.47;4201014;28;20044;-72
2023/10/15 06:25:43;;;;;;;22.65;15.07;;;;;;;16.39;54.56;94317.09;4209149;28;20052;-73
2023/10/15 06:27:45;;;;;;;26.13;18.92;;;;;;;16.43;54.34;94317.47;4198422;28;20066;-72
2023/10/15 06:29:47;;;;;;;32.70;19.42;;;;;;;16.43;53.82;94309.56;4193256;28;20157;-72
2023/10/15 06:31:49;;;;;;;27.02;19.20;;;;;;;16.47;53.91;94308.94;4211914;28;20048;-72
2023/10/15 06:33:51;;;;;;;28.25;19.08;;;;;;;16.54;53.79;94311.56;4205008;28;20056;-71
2023/10/15 06:35:57;;;;;;;31.38;21.35;;;;;;;16.33;53.48;94304.69;4194304;28;20607;-72
2023/10/15 06:38:00;;;;;;;27.00;20.27;;;;;;;16.47;53.47;94310.78;4211253;28;20081;-74
2023/10/15 06:40:02;;;;;;;33.63;23.58;;;;;;;16.52;52.91;94310.97;4177740;28;20049;-71
2023/10/15 06:42:23;;;;;;;32.88;23.15;;;;;;;16.57;53.06;94305.88;4188930;28;20060;-72
2023/10/15 06:44:27;;;;;;;32.70;23.92;;;;;;;16.61;52.98;94304.47;4193252;28;20481;-73
2023/10/15 06:46:29;;;;;;;28.27;23.55;;;;;;;16.70;52.73;94303.22;4209700;28;20048;-73
2023/10/15 06:48:34;;;;;;;36.10;24.50;;;;;;;16.83;52.51;94305.06;4185198;28;20132;-73
2023/10/15 06:50:37;;;;;;;28.95;25.35;;;;;;;16.91;52.39;94293.44;4182740;28;20041;-73
2023/10/15 06:52:39;;;;;;;32.25;23.90;;;;;;;17.07;52.11;94297.47;4209509;28;20052;-71
2023/10/15 06:54:42;;;;;;;34.07;22.93;;;;;;;17.23;51.37;94304.13;4211331;28;20054;-72
2023/10/15 06:56:45;;;;;;;37.13;23.35;;;;;;;17.27;51.42;94298.22;4186668;28;20090;-74
2023/10/15 06:58:47;;;;;;;27.65;22.65;;;;;;;17.36;51.29;94290.84;4194032;28;20131;-73
2023/10/15 07:00:49;;;;;;;28.55;21.67;;;;;;;17.46;50.98;94285.88;4192286;28;20139;-74
2023/10/15 07:02:52;;;;;;;32.28;23.02;;;;;;;17.37;51.07;94282.66;4211619;28;20459;-74
2023/10/15 07:04:56;;;;;;;;;;;;;;;17.50;50.82;94279.16;4188712;28;20715;-75
2023/10/15 07:06:59;;;;;;;30.52;19.92;;;;;;;17.57;50.31;94272.00;4208751;28;20000;-71
2023/10/15 07:09:01;;;;;;;36.35;22.38;;;;;;;17.71;49.96;94271.91;4208208;28;20508;-75
2023/10/15 07:11:05;;;;;;;28.58;20.75;;;;;;;17.71;49.84;94271.91;4193578;28;20048;-75
2023/10/15 07:13:07;;;;;;;27.42;20.25;;;;;;;17.62;49.96;94268.69;4211694;28;20592;-72
2023/10/15 07:15:14;;;;;;;31.33;18.73;;;;;;;17.57;50.18;94271.16;4194119;28;20056;-72
2023/10/15 07:17:17;;;;;;;33.83;18.08;;;;;;;17.68;50.93;94269.66;4211262;28;20127;-72
2023/10/15 07:19:19;;;;;;;30.87;17.70;;;;;;;17.77;50.04;94261.28;4205744;28;20131;-70
2023/10/15 07:21:22;;;;;;;27.42;16.70;;;;;;;17.92;49.75;94263.66;4208592;28;20276;-71
2023/10/15 07:23:24;;;;;;;25.45;18.13;;;;;;;17.96;49.63;94259.53;4201982;28;20119;-73
2023/10/15 07:25:29;;;;;;;21.48;13.80;;;;;;;18.12;49.27;94260.84;4209322;28;20094;-74
2023/10/15 07:27:32;;;;;;;25.92;15.68;;;;;;;18.30;48.93;94262.72;4210732;28;20569;-70
2023/10/15 07:29:34;;;;;;;21.98;12.57;;;;;;;18.18;47.87;94261.81;4211345;28;20051;-72
2023/10/15 07:31:38;;;;;;;21.02;13.30;;;;;;;18.16;48.32;94261.22;4192843;28;20766;-74
2023/10/15 07:33:40;;;;;;;20.15;10.70;;;;;;;18.13;47.95;94259.81;4177510;28;20059;-73
2023/10/15 07:35:43;;;;;;;15.68;10.23;;;;;;;18.14;47.72;94260.63;4176603;28;20055;-73
2023/10/15 07:37:51;;;;;;;20.48;9.38;;;;;;;18.15;47.91;94256.94;4192604;28;20045;-73
2023/10/15 07:39:53;;;;;;;19.27;9.27;;;;;;;18.32;47.80;94259.84;4191008;28;20204;-73
2023/10/15 07:41:55;;;;;;;18.45;9.85;;;;;;;18.49;47.41;94260.91;4192865;28;20053;-74
2023/10/15 07:43:57;;;;;;;18.65;9.18;;;;;;;18.58;46.95;94261.44;4192705;28;20060;-72
2023/10/15 07:46:00;;;;;;;19.00;9.80;;;;;;;18.76;46.92;94263.31;4209945;28;20055;-74
2023/10/15 07:48:03;;;;;;;22.30;10.50;;;;;;;18.62;46.50;94254.66;4210604;28;20086;-73
2023/10/15 07:50:13;;;;;;;17.00;10.60;;;;;;;18.10;47.37;94251.47;4175988;28;20044;-71
2023/10/15 07:52:16;;;;;;;23.65;9.32;;;;;;;18.29;47.52;94253.16;4205085;28;20074;-73
2023/10/15 07:54:18;;;;;;;18.25;10.68;;;;;;;18.55;47.28;94244.13;4179540;28;20049;-74
2023/10/15 07:56:21;;;;;;;17.42;9.13;;;;;;;18.79;46.58;94250.44;4204645;28;20540;-73
2023/10/15 07:58:24;;;;;;;14.43;7.93;;;;;;;18.76;46.17;94242.09;4193990;28;20601;-71
2023/10/15 08:00:26;;;;;;;16.90;8.35;;;;;;;18.92;45.67;94244.19;4209955;28;20133;-74
2023/10/15 08:02:28;;;;;;;16.98;8.80;;;;;;;19.08;45.63;94245.44;4192752;28;20113;-74
2023/10/15 08:04:30;;;;;;;17.95;8.50;;;;;;;19.18;45.61;94251.00;4206908;28;20536;-75
2023/10/15 08:06:34;;;;;;;15.43;7.93;;;;;;;19.32;45.30;94234.94;4209126;28;20044;-72
2023/10/15 08:08:38;;;;;;;19.85;8.63;;;;;;;19.46;45.08;94243.53;4191973;28;20127;-73
2023/10/15 08:10:41;;;;;;;19.77;8.38;;;;;;;19.67;45.00;94243.03;4179624;28;20068;-74
2023/10/15 08:12:44;;;;;;;;;;;;;;;19.80;44.38;94239.41;4210771;28;20389;-74
2023/10/15 08:14:47;;;;;;;19.50;9.55;;;;;;;19.90;43.88;94242.31;4209373;28;19924;-74
2023/10/15 08:16:49;;;;;;;20.50;9.18;;;;;;;19.83;44.05;94236.28;4194188;28;20056;-73
2023/10/15 08:18:51;;;;;;;19.63;9.13;;;;;;;19.98;43.99;94227.88;4194830;28;20064;-73
2023/10/15 08:20:54;;;;;;;27.25;9.63;;;;;;;20.02;43.63;94221.84;4202236;28;20472;-73
2023/10/15 08:22:56;;;;;;;20.25;9.73;;;;;;;20.01;44.02;94227.44;4192753;28;20133;-71
2023/10/15 08:24:59;;;;;;;22.40;9.73;;;;;;;20.10;43.39;94225.25;4209539;28;20055;-73
2023/10/15 08:27:01;;;;;;;14.50;8.60;;;;;;;20.20;43.42;94228.16;4195776;28;20060;-73
2023/10/15 08:29:03;;;;;;;16.77;9.10;;;;;;;20.29;43.33;94221.44;4196819;28;20420;-73
2023/10/15 08:31:05;;;;;;;16.42;8.10;;;;;;;20.14;43.10;94221.88;4207167;28;20051;-75
2023/10/15 08:33:12;;;;;;;17.52;8.35;;;;;;;19.87;43.84;94213.50;4208077;28;20074;-73
2023/10/15 08:35:15;;;;;;;14.48;8.07;;;;;;;20.03;43.81;94215.50;4190641;28;20579;-73
2023/10/15 08:37:17;;;;;;;16.05;8.88;;;;;;;20.13;43.58;94206.16;4183437;28;20395;-74
2023/10/15 08:39:19;;;;;;;22.08;9.43;;;;;;;19.57;44.56;94214.34;4205264;28;20055;-72
2023/10/15 08:41:25;;;;;;;17.90;9.20;;;;;;;19.49;44.88;94209.34;4194608;28;20053;-73
2023/10/15 08:43:32;;;;;;;20.27;10.07;;;;;;;19.53;44.94;94209.69;4186523;28;20052;-74
2023/10/15 08:45:34;;;;;;;17.20;9.02;;;;;;;19.86;44.40;94213.75;4185957;28;20048;-74
2023/10/15 08:47:38;;;;;;;13.50;8.97;;;;;;;19.75;44.46;94213.50;4209893;28;20496;-73
2023/10/15 08:49:46;;;;;;;16.25;9.05;;;;;;;19.64;44.67;94206.28;4182981;28;20426;-74
2023/10/15 08:51:50;;;;;;;18.05;8.95;;;;;;;19.61;44.76;94207.53;4190157;28;20127;-73
2023/10/15 08:53:57;;;;;;;18.10;8.80;;;;;;;19.68;44.71;94202.13;4199238;28;20178;-71
2023/10/15 08:56:01;;;;;;;18.70;8.95;;;;;;;20.03;44.13;94207.53;4174947;28;20061;-73
2023/10/15 08:58:06;;;;;;;16.35;8.52;;;;;;;20.36;43.53;94200.84;4192264;28;20064;-73
2023/10/15 09:00:25;;;;;;;20.35;8.55;;;;;;;20.71;43.34;94207.22;4160171;28;20144;-74
2023/10/15 09:02:33;;;;;;;21.67;8.70;;;;;;;21.01;42.75;94201.72;4178002;28;20131;-73
2023/10/15 09:04:36;;;;;;;18.73;8.77;;;;;;;21.13;42.13;94193.69;4200629;28;20055;-73
2023/10/15 09:06:40;;;;;;;19.55;8.88;;;;;;;21.29;41.89;94195.59;4210061;28;20189;-74
2023/10/15 09:08:42;;;;;;;21.05;8.68;;;;;;;21.42;41.50;94197.19;4206740;28;20060;-74
2023/10/15 09:10:44;;;;;;;19.17;8.93;;;;;;;21.58;41.50;94188.44;4199280;28;20682;-74
2023/10/15 09:12:50;;;;;;;14.02;8.25;;;;;;;21.73;41.24;94187.09;4194429;28;20168;-75
2023/10/15 09:14:53;;;;;;;20.95;8.60;;;;;;;21.91;40.90;94178.03;4203646;28;20067;-74
2023/10/15 09:16:55;;;;;;;22.95;8.88;;;;;;;21.81;40.41;94173.34;4212323;28;20396;-73
2023/10/15 09:19:06;;;;;;;17.70;8.80;;;;;;;21.75;41.13;94171.66;4194947;28;20136;-72
2023/10/15 09:21:08;;;;;;;20.30;8.73;;;;;;;21.89;40.73;94172.94;4207636;28;20047;-72
2023/10/15 09:23:11;;;;;;;16.70;8.10;;;;;;;21.79;41.01;94173.59;4209293;28;20079;-72
2023/10/15 09:25:14;;;;;;;18.92;8.60;;;;;;;21.82;40.67;94173.09;4207119;28;20048;-76
2023/10/15 09:27:15;;;;;;;17.45;8.00;;;;;;;21.54;40.96;94175.84;4212493;28;20063;-74
2023/10/15 09:29:21;;;;;;;18.40;8.77;;;;;;;21.43;41.32;94174.84;4212429;28;20048;-74
2023/10/15 09:31:25;;;;;;;22.33;8.13;;;;;;;21.34;41.61;94169.06;4212330;28;20051;-72
2023/10/15 09:33:29;;;;;;;15.95;7.13;;;;;;;21.48;41.28;94169.59;4200754;28;20461;-74
2023/10/15 09:35:33;;;;;;;20.40;7.55;;;;;;;21.79;41.21;94167.44;4211282;28;20056;-75
2023/10/15 09:37:35;;;;;;;29.35;9.05;;;;;;;21.85;40.91;94161.97;4178355;28;20513;-74
2023/10/15 09:39:38;;;;;;;21.80;9.27;;;;;;;21.82;41.06;94159.78;4200115;28;20056;-74
2023/10/15 09:41:43;;;;;;;11.77;7.13;;;;;;;21.92;40.73;94155.66;4194783;28;20183;-73
2023/10/15 09:43:46;;;;;;;17.52;7.13;;;;;;;22.01;40.55;94160.34;4210741;28;20536;-73
2023/10/15 09:45:50;;;;;;;18.83;7.10;;;;;;;21.87;40.74;94153.72;4165973;28;20122;-73
2023/10/15 09:47:57;;;;;;;12.15;6.90;;;;;;;21.92;40.54;94158.31;4209596;28;20485;-73
2023/10/15 09:50:01;;;;;;;17.83;7.18;;;;;;;21.89;41.23;94148.94;4192694;28;20139;-72
2023/10/15 09:52:10;;;;;;;14.25;6.85;;;;;;;22.15;40.61;94142.13;4194292;28;20488;-73
2023/10/15 09:54:14;;;;;;;13.32;6.82;;;;;;;22.46;40.32;94142.63;4211986;28;20052;-74